Time;durP1;ratioP1;P1;durP2;ratioP2;P2;SDS_P1;SDS_P2;PMS_P1;PMS_P2;Temp;Humidity;BMP_temperature;BMP_pressure;BME280_temperature;BME280_humidity;BME280_pressure;Samples;Min_cycle;Max_cycle;Signal;HPM_P1;HPM_P2
2022/11/22 00:00:26;;;;;;;5.20;1.57;;;;;6.10;98600.00;;;;10477196;28;20182;-76
2022/11/22 00:05:28;;;;;;;3.77;1.23;;;;;6.10;98596.00;;;;10443757;28;20220;-76
2022/11/22 00:10:30;;;;;;;6.53;1.07;;;;;6.10;98583.00;;;;10442338;28;20223;-77
2022/11/22 00:15:32;;;;;;;8.57;1.20;;;;;6.10;98593.00;;;;10458682;28;20254;-76
2022/11/22 00:20:34;;;;;;;3.10;1.77;;;;;6.00;98597.00;;;;10461531;28;20725;-76
2022/11/22 00:25:36;;;;;;;7.83;0.93;;;;;6.00;98604.00;;;;10417130;28;20276;-76
2022/11/22 00:30:38;;;;;;;9.13;1.03;;;;;6.00;98593.00;;;;10437891;28;20718;-76
2022/11/22 00:35:40;;;;;;;10.20;1.10;;;;;6.00;98595.00;;;;10437092;28;20190;-76
2022/11/22 00:40:42;;;;;;;5.63;1.10;;;;;5.80;98590.00;;;;10455649;28;20238;-77
2022/11/22 00:45:44;;;;;;;1.50;0.63;;;;;5.80;98594.00;;;;10458167;28;20205;-76
2022/11/22 00:50:48;;;;;;;7.87;1.13;;;;;5.80;98595.00;;;;10441502;28;20224;-76
2022/11/22 00:55:50;;;;;;;5.13;1.53;;;;;5.70;98607.00;;;;10441541;28;20181;-76
2022/11/22 01:00:52;;;;;;;7.00;1.43;;;;;5.60;98613.00;;;;10440812;28;20198;-76
2022/11/22 01:05:57;;;;;;;5.87;1.57;;;;;5.60;98607.00;;;;10441680;28;20687;-76
2022/11/22 01:11:01;;;;;;;5.10;0.70;;;;;5.70;98616.00;;;;10441290;28;20185;-76
2022/11/22 01:16:06;;;;;;;4.80;1.10;;;;;5.70;98605.00;;;;10450053;28;20182;-76
2022/11/22 01:21:08;;;;;;;9.20;1.87;;;;;5.50;98603.00;;;;10443350;28;20197;-76
2022/11/22 01:26:11;;;;;;;2.83;1.67;;;;;5.50;98604.00;;;;10482153;28;20209;-76
2022/11/22 01:31:13;;;;;;;8.67;1.70;;;;;5.40;98612.00;;;;10466530;28;20553;-76
2022/11/22 01:36:15;;;;;;;6.90;1.40;;;;;5.40;98615.00;;;;10440802;28;20197;-76
2022/11/22 01:41:16;;;;;;;4.80;1.10;;;;;5.30;98612.00;;;;10429776;28;20202;-76
2022/11/22 01:46:30;;;;;;;10.97;1.40;;;;;5.30;98619.00;;;;10482757;28;20205;-76
2022/11/22 01:51:39;;;;;;;9.70;2.00;;;;;5.20;98624.00;;;;10466598;28;20560;-76
2022/11/22 01:56:45;;;;;;;15.47;1.67;;;;;5.20;98631.00;;;;10500687;28;20227;-75
2022/11/22 02:01:47;;;;;;;7.00;1.53;;;;;5.10;98641.00;;;;10449624;28;20194;-77
2022/11/22 02:07:04;;;;;;;8.03;1.60;;;;;5.00;98637.00;;;;10452011;28;20221;-77
2022/11/22 02:12:08;;;;;;;6.97;1.40;;;;;4.90;98650.00;;;;10424538;28;20186;-77
2022/11/22 02:17:10;;;;;;;6.33;1.53;;;;;4.90;98634.00;;;;10453635;28;20250;-77
2022/11/22 02:22:35;;;;;;;7.43;0.90;;;;;4.80;98644.00;;;;10465168;28;20221;-77
2022/11/22 02:27:37;;;;;;;2.13;1.47;;;;;4.70;98647.00;;;;10480719;28;20707;-77
2022/11/22 02:32:39;;;;;;;4.17;1.20;;;;;4.70;98660.00;;;;10450267;28;20260;-77
2022/11/22 02:37:41;;;;;;;5.53;1.80;;;;;4.60;98651.00;;;;10477706;28;20216;-77
2022/11/22 02:42:48;;;;;;;11.60;1.80;;;;;4.60;98637.00;;;;10447412;28;20197;-77
2022/11/22 02:47:50;;;;;;;8.83;1.50;;;;;4.50;98649.00;;;;10447296;28;20288;-77
2022/11/22 02:52:52;;;;;;;19.17;2.60;;;;;4.50;98659.00;;;;10447198;28;20197;-77
2022/11/22 02:57:54;;;;;;;6.80;1.40;;;;;4.50;98652.00;;;;10480285;28;20299;-77
2022/11/22 03:02:56;;;;;;;6.43;1.30;;;;;4.40;98643.00;;;;10479960;28;20193;-77
2022/11/22 03:07:58;;;;;;;6.63;1.30;;;;;4.30;98640.00;;;;10461153;28;20626;-77
2022/11/22 03:13:00;;;;;;;7.17;1.40;;;;;4.30;98646.00;;;;10478090;28;20181;-77
2022/11/22 03:18:03;;;;;;;7.87;1.37;;;;;4.30;98661.00;;;;10428701;28;20174;-77
2022/11/22 03:23:05;;;;;;;4.50;1.80;;;;;4.20;98667.00;;;;10460829;28;20212;-77
2022/11/22 03:28:07;;;;;;;6.10;1.27;;;;;4.20;98665.00;;;;10476857;28;20211;-77
2022/11/22 03:33:09;;;;;;;2.53;1.00;;;;;4.30;98667.00;;;;10443369;28;20197;-77
2022/11/22 03:38:11;;;;;;;7.40;1.30;;;;;4.30;98680.00;;;;10442970;28;20235;-77
2022/11/22 03:43:13;;;;;;;10.00;1.33;;;;;4.20;98687.00;;;;10476595;28;20207;-77
2022/11/22 03:48:15;;;;;;;4.80;1.00;;;;;4.10;98692.00;;;;10476060;28;20194;-77
2022/11/22 03:53:17;;;;;;;9.00;1.80;;;;;4.10;98702.00;;;;10443040;28;20185;-77
2022/11/22 03:58:19;;;;;;;2.63;0.90;;;;;4.00;98709.00;;;;10427484;28;20189;-77
2022/11/22 04:03:21;;;;;;;5.70;1.53;;;;;3.90;98703.00;;;;10442647;28;20247;-77
2022/11/22 04:08:23;;;;;;;5.57;1.13;;;;;4.00;98700.00;;;;10442271;28;20619;-77
2022/11/22 04:15:05;;;;;;;5.63;1.50;;;;;3.90;98689.00;;;;10426548;28;20266;-77
2022/11/22 04:18:47;;;;;;;4.50;1.30;;;;;4.00;98699.00;;;;10444999;28;20182;-77
2022/11/22 04:25:12;;;;;;;4.90;1.60;;;;;4.00;98694.00;;;;10475449;28;20197;-77
2022/11/22 04:29:11;;;;;;;7.17;1.37;;;;;4.00;98692.00;;;;10475435;28;20233;-77
2022/11/22 04:34:13;;;;;;;3.40;1.30;;;;;4.10;98683.00;;;;10458602;28;20201;-77
2022/11/22 04:39:14;;;;;;;6.80;1.60;;;;;4.10;98678.00;;;;10459453;28;20182;-77
2022/11/22 04:49:37;;;;;;;5.23;1.50;;;;;4.10;98680.00;;;;10461368;28;20189;-77
2022/11/22 04:54:39;;;;;;;6.10;1.30;;;;;4.10;98683.00;;;;10466773;28;20326;-77
2022/11/22 04:59:41;;;;;;;8.07;1.90;;;;;4.20;98678.00;;;;10450306;28;20631;-77
2022/11/22 05:04:43;;;;;;;12.57;1.90;;;;;4.20;98685.00;;;;10452676;28;20205;-77
2022/11/22 05:09:51;;;;;;;5.63;1.90;;;;;4.10;98684.00;;;;10480249;28;20232;-77
2022/11/22 05:14:53;;;;;;;7.50;1.87;;;;;4.10;98674.00;;;;10482525;28;20189;-77
2022/11/22 05:19:55;;;;;;;8.93;1.77;;;;;4.00;98680.00;;;;10465666;28;20649;-77
2022/11/22 05:24:56;;;;;;;7.93;1.83;;;;;3.90;98674.00;;;;10449208;28;20218;-78
2022/11/22 05:29:58;;;;;;;5.87;1.80;;;;;4.00;98672.00;;;;10440446;28;20267;-77
2022/11/22 05:35:00;;;;;;;3.97;1.73;;;;;3.90;98682.00;;;;10431556;28;20685;-77
2022/11/22 05:40:03;;;;;;;7.00;1.87;;;;;4.00;98677.00;;;;10424266;28;20186;-78
2022/11/22 05:45:05;;;;;;;1.53;1.43;;;;;4.00;98681.00;;;;10407251;28;20240;-78
2022/11/22 05:50:08;;;;;;;6.87;1.60;;;;;4.10;98682.00;;;;10423459;28;20187;-77
2022/11/22 05:55:09;;;;;;;4.50;1.77;;;;;4.20;98694.00;;;;10406968;28;20241;-77
2022/11/22 06:00:12;;;;;;;7.00;2.73;;;;;4.30;98695.00;;;;10422333;28;20182;-78
2022/11/22 06:05:14;;;;;;;4.03;1.47;;;;;4.50;98686.00;;;;10457330;28;20206;-77
2022/11/22 06:10:16;;;;;;;9.50;1.97;;;;;4.60;98693.00;;;;10447700;28;20611;-77
2022/11/22 06:15:18;;;;;;;11.00;1.97;;;;;4.70;98691.00;;;;10480474;28;20185;-77
2022/11/22 06:20:20;;;;;;;8.00;1.93;;;;;4.70;98696.00;;;;10446649;28;20202;-77
2022/11/22 06:25:21;;;;;;;10.20;2.23;;;;;4.80;98702.00;;;;10430240;28;20224;-78
2022/11/22 06:30:23;;;;;;;6.60;1.63;;;;;4.90;98708.00;;;;10463207;28;20205;-77
2022/11/22 06:35:25;;;;;;;4.83;1.80;;;;;4.90;98720.00;;;;10463015;28;20640;-77
2022/11/22 06:40:27;;;;;;;8.23;2.03;;;;;5.00;98704.00;;;;10462928;28;20190;-77
2022/11/22 06:45:29;;;;;;;11.20;2.13;;;;;5.00;98708.00;;;;10462606;28;20197;-77
2022/11/22 06:50:31;;;;;;;8.20;1.70;;;;;5.10;98705.00;;;;10445759;28;20204;-77
2022/11/22 06:55:33;;;;;;;12.80;2.30;;;;;5.10;98703.00;;;;10462171;28;20193;-77
2022/11/22 07:00:51;;;;;;;5.53;2.00;;;;;5.10;98709.00;;;;10462106;28;20647;-77
2022/11/22 07:05:53;;;;;;;8.40;1.73;;;;;5.20;98708.00;;;;10420729;28;20232;-77
2022/11/22 07:11:05;;;;;;;6.60;2.40;;;;;5.20;98716.00;;;;10435669;28;20200;-77
2022/11/22 07:16:08;;;;;;;9.60;2.10;;;;;5.30;98715.00;;;;10461437;28;20182;-78
2022/11/22 07:21:18;;;;;;;4.00;1.93;;;;;5.30;98722.00;;;;10444385;28;20209;-77
2022/11/22 07:26:21;;;;;;;2.60;1.87;;;;;5.40;98726.00;;;;10444412;28;20229;-77
2022/11/22 07:31:24;;;;;;;5.90;1.90;;;;;5.40;98730.00;;;;10444242;28;20208;-77
2022/11/22 07:36:28;;;;;;;8.73;2.10;;;;;5.40;98736.00;;;;10433376;28;20182;-77
2022/11/22 07:41:30;;;;;;;5.20;1.93;;;;;5.50;98741.00;;;;10433304;28;20232;-77
2022/11/22 07:46:32;;;;;;;3.80;1.90;;;;;5.60;98736.00;;;;10427396;28;20244;-77
2022/11/22 07:51:34;;;;;;;8.53;2.23;;;;;5.60;98741.00;;;;10418714;28;20233;-78
2022/11/22 07:56:36;;;;;;;7.63;2.30;;;;;5.60;98735.00;;;;10435797;28;20668;-78
2022/11/22 08:01:38;;;;;;;4.87;2.20;;;;;5.70;98734.00;;;;10418725;28;20183;-77
2022/11/22 08:06:40;;;;;;;3.83;1.93;;;;;5.70;98726.00;;;;10443828;28;20222;-77
2022/11/22 08:11:41;;;;;;;7.33;2.43;;;;;5.80;98715.00;;;;10437897;28;20216;-78
2022/11/22 08:16:43;;;;;;;7.37;2.30;;;;;6.00;98721.00;;;;10459482;28;20283;-77
2022/11/22 08:21:46;;;;;;;5.90;1.90;;;;;6.10;98715.00;;;;10458665;28;20235;-78
2022/11/22 08:26:48;;;;;;;5.93;2.07;;;;;6.10;98720.00;;;;10458247;28;20213;-77
2022/11/22 08:31:50;;;;;;;5.53;2.00;;;;;6.00;98722.00;;;;10458667;28;20193;-77
2022/11/22 08:36:52;;;;;;;8.17;2.07;;;;;6.00;98709.00;;;;10417276;28;20290;-77
2022/11/22 08:41:54;;;;;;;6.60;2.03;;;;;6.10;98711.00;;;;10418007;28;20201;-78
2022/11/22 08:46:55;;;;;;;3.67;1.77;;;;;6.10;98715.00;;;;10442379;28;20480;-78
2022/11/22 08:51:57;;;;;;;7.23;2.40;;;;;6.00;98721.00;;;;10474350;28;20696;-77
2022/11/22 08:56:59;;;;;;;6.13;1.97;;;;;6.10;98716.00;;;;10433469;28;20626;-77
2022/11/22 09:02:01;;;;;;;9.87;2.63;;;;;6.30;98714.00;;;;10433424;28;20194;-78
2022/11/22 09:07:03;;;;;;;4.33;1.80;;;;;6.60;98720.00;;;;10400185;28;20600;-78
2022/11/22 09:12:25;;;;;;;4.60;1.80;;;;;6.60;98713.00;;;;10420248;28;20206;-78
2022/11/22 09:17:27;;;;;;;7.30;3.07;;;;;6.70;98700.00;;;;10441905;28;20235;-78
2022/11/22 09:22:30;;;;;;;5.60;2.13;;;;;6.70;98707.00;;;;10441716;28;20189;-78
2022/11/22 09:27:32;;;;;;;7.07;2.10;;;;;6.60;98718.00;;;;10473986;28;20603;-78
2022/11/22 09:32:34;;;;;;;8.90;2.07;;;;;6.60;98719.00;;;;10425599;28;20194;-77
2022/11/22 09:37:36;;;;;;;4.70;1.50;;;;;6.80;98709.00;;;;10461396;28;20302;-78
2022/11/22 09:42:53;;;;;;;4.00;1.90;;;;;6.90;98714.00;;;;10464869;28;20254;-77
2022/11/22 09:48:12;;;;;;;3.27;1.80;;;;;7.00;98705.00;;;;10481232;28;20205;-77
2022/11/22 09:53:23;;;;;;;4.40;1.97;;;;;6.90;98710.00;;;;10448143;28;20197;-77
2022/11/22 09:58:34;;;;;;;6.43;1.60;;;;;6.90;98708.00;;;;10447828;28;20182;-77
2022/11/22 10:03:47;;;;;;;3.90;1.77;;;;;6.90;98709.00;;;;10464001;28;20190;-78
2022/11/22 10:09:14;;;;;;;4.97;1.37;;;;;7.20;98702.00;;;;10447599;28;20269;-77
2022/11/22 10:14:46;;;;;;;3.70;1.40;;;;;7.30;98700.00;;;;10463781;28;20664;-78
2022/11/22 10:20:08;;;;;;;5.00;1.53;;;;;7.60;98699.00;;;;10430226;28;20660;-78
2022/11/22 10:25:21;;;;;;;1.50;1.00;;;;;7.80;98697.00;;;;10446676;28;20233;-78
2022/11/22 10:30:24;;;;;;;4.37;1.40;;;;;7.80;98704.00;;;;10446955;28;20197;-77
2022/11/22 10:36:01;;;;;;;4.43;1.40;;;;;8.10;98684.00;;;;10427273;28;20198;-77
2022/11/22 10:41:14;;;;;;;3.73;1.40;;;;;8.60;98677.00;;;;10421818;28;20190;-77
2022/11/22 10:46:50;;;;;;;2.77;1.03;;;;;8.60;98665.00;;;;10460639;28;20210;-78
2022/11/22 10:52:26;;;;;;;2.00;0.83;;;;;8.60;98657.00;;;;10446605;28;20224;-78
2022/11/22 10:57:36;;;;;;;2.93;1.27;;;;;8.90;98656.00;;;;10429622;28;20205;-77
2022/11/22 11:03:15;;;;;;;1.63;0.80;;;;;9.40;98664.00;;;;10461698;28;20189;-77
2022/11/22 11:08:38;;;;;;;0.93;0.87;;;;;9.40;98657.00;;;;10423357;28;20245;-78
2022/11/22 11:14:09;;;;;;;1.53;0.80;;;;;9.00;98665.00;;;;10464384;28;20264;-78
2022/11/22 11:19:17;;;;;;;2.33;0.80;;;;;8.70;98655.00;;;;10442010;28;20198;-77
2022/11/22 11:24:19;;;;;;;2.83;0.60;;;;;8.60;98671.00;;;;10460857;28;20185;-78
2022/11/22 11:29:46;;;;;;;1.70;0.73;;;;;8.30;98677.00;;;;10444198;28;20241;-78
2022/11/22 11:34:56;;;;;;;2.43;0.80;;;;;8.00;98680.00;;;;10451539;28;20277;-78
2022/11/22 11:39:58;;;;;;;1.87;0.90;;;;;8.10;98682.00;;;;10443891;28;20177;-77
2022/11/22 11:45:27;;;;;;;2.30;0.87;;;;;8.30;98677.00;;;;10443968;28;20208;-78
2022/11/22 11:50:29;;;;;;;1.47;0.80;;;;;8.50;98677.00;;;;10459638;28;20243;-77
2022/11/22 11:55:34;;;;;;;1.47;1.10;;;;;8.40;98678.00;;;;10443692;28;20209;-78
2022/11/22 12:00:38;;;;;;;0.87;0.57;;;;;8.80;98673.00;;;;10475498;28;20224;-78
2022/11/22 12:05:40;;;;;;;1.93;0.77;;;;;8.90;98649.00;;;;10451592;28;20814;-77
2022/11/22 12:10:53;;;;;;;1.13;0.60;;;;;9.00;98654.00;;;;10437701;28;20255;-77
2022/11/22 12:16:23;;;;;;;0.63;0.60;;;;;8.90;98647.00;;;;10450713;28;20653;-77
2022/11/22 12:21:40;;;;;;;0.90;0.80;;;;;8.80;98643.00;;;;10457890;28;20216;-76
2022/11/22 12:26:42;;;;;;;1.80;0.70;;;;;8.80;98645.00;;;;10441185;28;20213;-76
2022/11/22 12:31:49;;;;;;;1.53;0.80;;;;;8.80;98637.00;;;;10437927;28;20185;-77
2022/11/22 12:37:15;;;;;;;0.70;0.60;;;;;9.10;98614.00;;;;10440974;28;20691;-76
2022/11/22 12:42:43;;;;;;;1.03;0.80;;;;;9.70;98636.00;;;;10424705;28;20186;-77
2022/11/22 12:47:47;;;;;;;0.60;0.50;;;;;9.70;98632.00;;;;10449047;28;20275;-77
2022/11/22 12:53:00;;;;;;;3.00;0.60;;;;;9.40;98647.00;;;;10433749;28;20725;-77
2022/11/22 12:58:41;;;;;;;1.27;0.70;;;;;9.00;98631.00;;;;10433937;28;20801;-77
2022/11/22 13:03:43;;;;;;;2.20;0.70;;;;;8.80;98648.00;;;;10436937;28;20205;-77
2022/11/22 13:08:59;;;;;;;2.37;0.70;;;;;8.60;98638.00;;;;10412497;28;20210;-77
2022/11/22 13:14:19;;;;;;;2.80;0.80;;;;;8.50;98653.00;;;;10457435;28;20181;-77
2022/11/22 13:19:24;;;;;;;1.43;0.87;;;;;8.50;98649.00;;;;10439172;28;20189;-77
2022/11/22 13:24:27;;;;;;;0.70;0.60;;;;;8.60;98653.00;;;;10472373;28;20279;-77
2022/11/22 13:29:33;;;;;;;0.80;0.70;;;;;8.60;98655.00;;;;10464177;28;20559;-77
2022/11/22 13:34:38;;;;;;;1.37;0.80;;;;;8.50;98645.00;;;;10459581;28;20235;-76
2022/11/22 13:39:48;;;;;;;2.37;1.03;;;;;9.10;98648.00;;;;10453701;28;20182;-77
2022/11/22 13:44:53;;;;;;;4.27;1.30;;;;;9.60;98645.00;;;;10452601;28;20190;-77
2022/11/22 13:49:55;;;;;;;0.90;0.80;;;;;10.10;98646.00;;;;10433530;28;20679;-77
2022/11/22 13:54:59;;;;;;;2.30;1.03;;;;;9.90;98653.00;;;;10425948;28;20203;-77
2022/11/22 14:00:11;;;;;;;2.53;0.90;;;;;9.50;98660.00;;;;10478519;28;20189;-77
2022/11/22 14:05:23;;;;;;;2.97;1.10;;;;;9.50;98660.00;;;;10432655;28;20245;-77
2022/11/22 14:10:47;;;;;;;14.23;8.20;;;;;9.60;98655.00;;;;10428629;28;20209;-78
2022/11/22 14:16:11;;;;;;;3.03;1.50;;;;;9.50;98653.00;;;;10440726;28;20672;-76
2022/11/22 14:21:47;;;;;;;4.03;1.33;;;;;9.30;98652.00;;;;10446905;28;20194;-77
2022/11/22 14:27:04;;;;;;;2.20;0.90;;;;;9.60;98655.00;;;;10412947;28;20214;-77
2022/11/22 14:32:20;;;;;;;2.30;1.03;;;;;9.60;98662.00;;;;10415661;28;20194;-76
2022/11/22 14:37:28;;;;;;;5.07;1.00;;;;;9.40;98653.00;;;;10461155;28;20651;-77
2022/11/22 14:42:36;;;;;;;3.67;2.13;;;;;9.30;98663.00;;;;10480398;28;20694;-76
2022/11/22 14:47:43;;;;;;;3.77;1.87;;;;;9.40;98664.00;;;;10474004;28;20203;-76
2022/11/22 14:52:46;;;;;;;1.27;0.90;;;;;9.60;98655.00;;;;10440328;28;20186;-76
2022/11/22 14:57:57;;;;;;;1.30;0.80;;;;;9.60;98658.00;;;;10423125;28;20606;-77
2022/11/22 15:03:14;;;;;;;2.40;0.80;;;;;9.40;98656.00;;;;10444438;28;20255;-76
2022/11/22 15:08:58;;;;;;;2.93;0.90;;;;;9.10;98682.00;;;;10454979;28;20232;-77
2022/11/22 15:14:35;;;;;;;3.87;0.93;;;;;8.90;98686.00;;;;10329049;28;20199;-77
2022/11/22 15:19:38;;;;;;;2.23;0.93;;;;;8.70;98697.00;;;;10418973;28;20599;-77
2022/11/22 15:25:02;;;;;;;2.20;1.10;;;;;8.70;98704.00;;;;10437942;28;20288;-77
2022/11/22 15:30:25;;;;;;;15.97;5.47;;;;;8.60;98694.00;;;;10433314;28;20643;-77
2022/11/22 15:36:01;;;;;;;10.67;6.17;;;;;8.50;98705.00;;;;10473081;28;20518;-77
2022/11/22 15:41:26;;;;;;;6.63;2.93;;;;;8.40;98706.00;;;;10410219;28;20197;-77
2022/11/22 15:46:48;;;;;;;4.33;1.47;;;;;8.20;98710.00;;;;10430161;28;20281;-77
2022/11/22 15:52:27;;;;;;;3.67;1.17;;;;;8.10;98716.00;;;;10444390;28;20268;-77
2022/11/22 15:57:53;;;;;;;5.47;1.63;;;;;8.10;98712.00;;;;10431043;28;20197;-77
2022/11/22 16:02:56;;;;;;;4.53;1.20;;;;;8.00;98721.00;;;;10444575;28;20280;-77
2022/11/22 16:08:04;;;;;;;7.80;1.57;;;;;8.00;98720.00;;;;10437051;28;20210;-77
2022/11/22 16:13:10;;;;;;;7.70;1.53;;;;;7.90;98729.00;;;;10390863;28;20210;-77
2022/11/22 16:18:12;;;;;;;4.77;1.60;;;;;7.80;98738.00;;;;10451992;28;20224;-77
2022/11/22 16:23:18;;;;;;;6.47;1.93;;;;;7.80;98739.00;;;;10440794;28;20272;-77
2022/11/22 16:28:27;;;;;;;6.43;1.50;;;;;7.90;98726.00;;;;10416517;28;20224;-77
2022/11/22 16:33:30;;;;;;;4.87;1.47;;;;;8.00;98726.00;;;;10439693;28;20244;-77
2022/11/22 16:38:31;;;;;;;6.13;1.83;;;;;8.20;98731.00;;;;10412962;28;20277;-77
2022/11/22 16:43:34;;;;;;;4.13;1.60;;;;;8.30;98730.00;;;;10448510;28;20266;-77
2022/11/22 16:48:36;;;;;;;9.30;3.33;;;;;8.30;98749.00;;;;10423180;28;20220;-77
2022/11/22 16:53:44;;;;;;;4.57;1.20;;;;;8.40;98736.00;;;;10471927;28;20248;-77
2022/11/22 16:58:48;;;;;;;9.17;2.10;;;;;8.40;98736.00;;;;10472004;28;20185;-77
2022/11/22 17:03:53;;;;;;;8.37;1.80;;;;;8.30;98746.00;;;;10465656;28;20212;-77
2022/11/22 17:08:57;;;;;;;7.13;1.93;;;;;8.30;98736.00;;;;10446896;28;20782;-77
2022/11/22 17:13:59;;;;;;;5.50;1.40;;;;;8.20;98744.00;;;;10430574;28;20186;-77
2022/11/22 17:19:01;;;;;;;11.73;2.73;;;;;8.30;98756.00;;;;10466908;28;20247;-77
2022/11/22 17:24:05;;;;;;;4.63;1.40;;;;;8.40;98753.00;;;;10438920;28;20189;-76
2022/11/22 17:29:07;;;;;;;10.40;2.20;;;;;8.50;98747.00;;;;10454942;28;20244;-77
2022/11/22 17:34:29;;;;;;;7.53;1.70;;;;;8.60;98749.00;;;;10446807;28;20588;-77
2022/11/22 17:39:31;;;;;;;7.33;1.63;;;;;8.60;98754.00;;;;10466856;28;20726;-77
2022/11/22 17:44:34;;;;;;;11.57;1.97;;;;;8.60;98759.00;;;;10488239;28;20194;-76
2022/11/22 17:49:35;;;;;;;11.67;1.77;;;;;8.60;98760.00;;;;10438140;28;20243;-77
2022/11/22 17:54:38;;;;;;;5.50;1.40;;;;;8.70;98780.00;;;;10472113;28;20209;-77
2022/11/22 17:59:42;;;;;;;5.03;1.63;;;;;8.80;98778.00;;;;10464161;28;20204;-77
2022/11/22 18:04:43;;;;;;;5.53;1.80;;;;;8.60;98780.00;;;;10481158;28;20193;-76
2022/11/22 18:09:50;;;;;;;10.70;1.90;;;;;8.40;98775.00;;;;10448430;28;20622;-77
2022/11/22 18:14:52;;;;;;;3.50;1.47;;;;;8.30;98781.00;;;;10480441;28;20217;-76
2022/11/22 18:19:54;;;;;;;14.37;2.23;;;;;8.20;98777.00;;;;10472134;28;20679;-76
2022/11/22 18:24:56;;;;;;;5.87;1.87;;;;;8.10;98786.00;;;;10425528;28;20672;-76
2022/11/22 18:29:58;;;;;;;7.20;1.90;;;;;8.10;98785.00;;;;10430260;28;20216;-76
2022/11/22 18:35:00;;;;;;;4.97;1.53;;;;;8.10;98781.00;;;;10430759;28;20194;-76
2022/11/22 18:40:02;;;;;;;5.50;1.50;;;;;8.10;98782.00;;;;10419950;28;20189;-76
2022/11/22 18:45:05;;;;;;;3.60;1.30;;;;;8.10;98787.00;;;;10445734;28;20185;-76
2022/11/22 18:50:07;;;;;;;10.77;1.90;;;;;8.00;98788.00;;;;10462273;28;20198;-77
2022/11/22 18:55:16;;;;;;;5.37;1.57;;;;;8.00;98797.00;;;;10462662;28;20720;-76
2022/11/22 19:00:20;;;;;;;10.77;2.10;;;;;8.00;98802.00;;;;10461778;28;20193;-76
2022/11/22 19:05:21;;;;;;;8.27;1.77;;;;;8.00;98810.00;;;;10445208;28;20200;-76
2022/11/22 19:10:25;;;;;;;6.73;1.90;;;;;8.00;98815.00;;;;10461667;28;20213;-76
2022/11/22 19:15:27;;;;;;;4.87;2.03;;;;;8.00;98818.00;;;;10461228;28;20709;-77
2022/11/22 19:20:30;;;;;;;7.63;1.63;;;;;8.00;98824.00;;;;10468257;28;20304;-77
2022/11/22 19:25:52;;;;;;;9.60;2.20;;;;;8.00;98811.00;;;;10446824;28;20299;-76
2022/11/22 19:31:06;;;;;;;7.43;2.03;;;;;7.90;98826.00;;;;10460315;28;20197;-76
2022/11/22 19:36:14;;;;;;;5.93;1.17;;;;;7.90;98821.00;;;;10435875;28;20252;-76
2022/11/22 19:41:18;;;;;;;6.57;2.10;;;;;7.90;98823.00;;;;10410547;28;20194;-76
2022/11/22 19:46:20;;;;;;;8.37;1.83;;;;;7.90;98808.00;;;;10443895;28;20215;-76
2022/11/22 19:51:24;;;;;;;4.73;1.47;;;;;7.90;98816.00;;;;10459862;28;20703;-76
2022/11/22 19:56:30;;;;;;;5.03;1.90;;;;;7.90;98821.00;;;;10494188;28;20186;-76
2022/11/22 20:01:33;;;;;;;6.57;1.70;;;;;7.90;98819.00;;;;10459028;28;20197;-76
2022/11/22 20:06:35;;;;;;;6.67;1.73;;;;;8.00;98828.00;;;;10430418;28;20230;-76
2022/11/22 20:11:41;;;;;;;6.53;1.40;;;;;8.00;98827.00;;;;10434114;28;20218;-76
2022/11/22 20:16:43;;;;;;;4.13;1.90;;;;;8.00;98833.00;;;;10451857;28;20217;-76
2022/11/22 20:21:48;;;;;;;9.03;2.07;;;;;8.00;98843.00;;;;10474583;28;20221;-76
2022/11/22 20:26:50;;;;;;;4.10;1.67;;;;;8.10;98848.00;;;;10442223;28;20291;-76
2022/11/22 20:31:51;;;;;;;8.07;2.00;;;;;8.10;98856.00;;;;10459372;28;20193;-76
2022/11/22 20:36:54;;;;;;;4.87;2.20;;;;;8.00;98863.00;;;;10442302;28;20194;-76
2022/11/22 20:41:56;;;;;;;5.23;1.80;;;;;8.00;98876.00;;;;10441773;28;20197;-77
2022/11/22 20:47:18;;;;;;;11.60;2.27;;;;;8.00;98872.00;;;;10445122;28;20236;-77
2022/11/22 20:52:20;;;;;;;6.90;3.13;;;;;7.90;98878.00;;;;10441852;28;20219;-77
2022/11/22 20:57:22;;;;;;;5.73;2.43;;;;;8.00;98887.00;;;;10458337;28;20212;-76
2022/11/22 21:02:23;;;;;;;10.67;2.50;;;;;8.00;98896.00;;;;10457898;28;20189;-76
2022/11/22 21:07:25;;;;;;;8.97;2.23;;;;;8.00;98907.00;;;;10406505;28;20680;-76
2022/11/22 21:12:27;;;;;;;9.90;2.40;;;;;8.00;98911.00;;;;10450191;28;20213;-77
2022/11/22 21:17:29;;;;;;;5.33;2.53;;;;;8.00;98922.00;;;;10433450;28;20677;-77
2022/11/22 21:22:52;;;;;;;12.40;2.50;;;;;8.00;98923.00;;;;10407701;28;20198;-76
2022/11/22 21:27:54;;;;;;;10.17;2.77;;;;;8.00;98930.00;;;;10416286;28;20900;-77
2022/11/22 21:32:56;;;;;;;8.50;2.50;;;;;8.00;98937.00;;;;10462098;28;20197;-76
2022/11/22 21:37:58;;;;;;;12.67;2.00;;;;;8.10;98943.00;;;;10417552;28;20244;-76
2022/11/22 21:43:00;;;;;;;9.07;2.23;;;;;8.10;98954.00;;;;10427209;28;20195;-76
2022/11/22 21:48:03;;;;;;;7.20;1.70;;;;;8.20;98961.00;;;;10432459;28;20614;-76
2022/11/22 21:53:06;;;;;;;5.70;1.83;;;;;8.20;98965.00;;;;10417977;28;20195;-77
2022/11/22 21:58:08;;;;;;;6.73;1.70;;;;;8.20;98970.00;;;;10411576;28;20236;-76
2022/11/22 22:03:10;;;;;;;13.53;1.90;;;;;8.20;98982.00;;;;10427934;28;20254;-76
2022/11/22 22:08:12;;;;;;;4.17;1.57;;;;;8.20;98978.00;;;;10422943;28;20221;-76
2022/11/22 22:13:15;;;;;;;2.77;1.53;;;;;8.20;98977.00;;;;10428957;28;20202;-76
2022/11/22 22:18:17;;;;;;;10.20;2.00;;;;;8.20;98982.00;;;;10444822;28;20239;-77
2022/11/22 22:23:19;;;;;;;4.60;1.80;;;;;8.20;98983.00;;;;10455678;28;20197;-77
2022/11/22 22:28:22;;;;;;;6.00;1.80;;;;;8.20;98989.00;;;;10445926;28;20225;-76
2022/11/22 22:33:25;;;;;;;8.27;1.97;;;;;8.20;99000.00;;;;10444874;28;20202;-77
2022/11/22 22:38:29;;;;;;;7.03;1.67;;;;;8.30;99004.00;;;;10475910;28;20185;-77
2022/11/22 22:43:34;;;;;;;5.60;1.57;;;;;8.30;99002.00;;;;10461080;28;20235;-76
2022/11/22 22:48:36;;;;;;;16.20;1.60;;;;;8.30;99010.00;;;;10432256;28;20213;-77
2022/11/22 22:53:38;;;;;;;7.33;1.83;;;;;8.40;99013.00;;;;10443423;28;20193;-77
2022/11/22 22:58:41;;;;;;;6.37;1.40;;;;;8.40;99021.00;;;;10442619;28;20292;-77
2022/11/22 23:03:51;;;;;;;8.03;1.93;;;;;8.40;99020.00;;;;10423954;28;20273;-76
2022/11/22 23:08:54;;;;;;;7.70;1.53;;;;;8.40;99032.00;;;;10439568;28;20217;-77
2022/11/22 23:13:56;;;;;;;4.37;1.50;;;;;8.40;99036.00;;;;10460371;28;20237;-77
2022/11/22 23:18:58;;;;;;;7.37;1.40;;;;;8.40;99036.00;;;;10460643;28;20186;-76
2022/11/22 23:24:01;;;;;;;9.20;2.57;;;;;8.50;99055.00;;;;10460396;28;20235;-77
2022/11/22 23:29:03;;;;;;;12.00;2.17;;;;;8.50;99051.00;;;;10459110;28;20225;-77
2022/11/22 23:34:05;;;;;;;7.90;1.43;;;;;8.50;99052.00;;;;10452128;28;20714;-77
2022/11/22 23:39:08;;;;;;;4.00;1.50;;;;;8.60;99057.00;;;;10441276;28;20715;-79
2022/11/22 23:44:10;;;;;;;7.80;1.80;;;;;8.60;99058.00;;;;10425538;28;20194;-78
2022/11/22 23:49:11;;;;;;;9.10;2.03;;;;;8.60;99062.00;;;;10456947;28;20202;-79
2022/11/22 23:54:13;;;;;;;9.30;2.20;;;;;8.60;99071.00;;;;10411066;28;20186;-77
2022/11/22 23:59:17;;;;;;;8.87;1.23;;;;;8.60;99070.00;;;;10453656;28;20557;-77
